KHPT/HPT METAR and TAF weather

Enter ICAO airport designator
Station Type Date Time Source
KHPT METAR 2021/03/04 20:55 UTC NOAA

KHPT 042055Z AUTO 12016KT 10SM CLR 06/01 A3026 RMK AO2


Station Type Date Time Source
KHPT Decoded METAR 2021/03/04 20:55 UTC NOAA

Station name not available
Mar 04, 2021 - 03:55 PM EST / 2021.03.04 2055 UTC
Wind: from the ESE (120 degrees) at 18 MPH (16 KT):0
Visibility: 10 mile(s):0
Sky conditions: clear
Temperature: 42 F (6 C)
Dew Point: 33 F (1 C)
Relative Humidity: 70%
Pressure (altimeter): 30.26 in. Hg (1024 hPa)
ob: KHPT 042055Z AUTO 12016KT 10SM CLR 06/01 A3026 RMK AO2
cycle: 21

Station Type Date Time Source
KHPT TAF UTC NOAA

Error!

Example: see airport list